sensor_id;sensor_type;location;lat;lon;timestamp;P1;durP1;ratioP1;P2;durP2;ratioP2
5295;SDS011;2670;42.720;23.336;2022-07-10T00:02:27;20.80;;;13.90;;
5295;SDS011;2670;42.720;23.336;2022-07-10T00:04:55;22.30;;;14.37;;
5295;SDS011;2670;42.720;23.336;2022-07-10T00:07:21;22.23;;;14.90;;
5295;SDS011;2670;42.720;23.336;2022-07-10T00:09:48;18.80;;;13.70;;
5295;SDS011;2670;42.720;23.336;2022-07-10T00:12:15;20.27;;;14.57;;
5295;SDS011;2670;42.720;23.336;2022-07-10T00:14:42;17.80;;;13.17;;
5295;SDS011;2670;42.720;23.336;2022-07-10T00:17:08;19.30;;;14.30;;
5295;SDS011;2670;42.720;23.336;2022-07-10T00:19:35;17.90;;;14.17;;
5295;SDS011;2670;42.720;23.336;2022-07-10T00:22:03;24.33;;;13.53;;
5295;SDS011;2670;42.720;23.336;2022-07-10T00:24:30;22.90;;;13.30;;
5295;SDS011;2670;42.720;23.336;2022-07-10T00:26:57;20.00;;;14.03;;
5295;SDS011;2670;42.720;23.336;2022-07-10T00:29:24;17.90;;;14.20;;
5295;SDS011;2670;42.720;23.336;2022-07-10T00:31:51;18.97;;;13.30;;
5295;SDS011;2670;42.720;23.336;2022-07-10T00:34:17;21.67;;;13.77;;
5295;SDS011;2670;42.720;23.336;2022-07-10T00:36:44;20.63;;;16.27;;
5295;SDS011;2670;42.720;23.336;2022-07-10T00:39:13;16.60;;;13.13;;
5295;SDS011;2670;42.720;23.336;2022-07-10T00:41:40;16.57;;;13.50;;
5295;SDS011;2670;42.720;23.336;2022-07-10T00:44:06;18.63;;;14.87;;
5295;SDS011;2670;42.720;23.336;2022-07-10T00:46:33;19.57;;;14.23;;
5295;SDS011;2670;42.720;23.336;2022-07-10T00:49:00;24.40;;;14.57;;
5295;SDS011;2670;42.720;23.336;2022-07-10T00:51:27;19.90;;;14.20;;
5295;SDS011;2670;42.720;23.336;2022-07-10T00:53:56;19.03;;;15.30;;
5295;SDS011;2670;42.720;23.336;2022-07-10T00:56:25;17.87;;;13.93;;
5295;SDS011;2670;42.720;23.336;2022-07-10T00:58:53;18.53;;;13.80;;
5295;SDS011;2670;42.720;23.336;2022-07-10T01:01:20;17.97;;;13.10;;
5295;SDS011;2670;42.720;23.336;2022-07-10T01:03:48;18.00;;;13.20;;
5295;SDS011;2670;42.720;23.336;2022-07-10T01:06:15;14.77;;;12.20;;
5295;SDS011;2670;42.720;23.336;2022-07-10T01:08:43;17.53;;;13.53;;
5295;SDS011;2670;42.720;23.336;2022-07-10T01:11:11;16.50;;;13.70;;
5295;SDS011;2670;42.720;23.336;2022-07-10T01:13:40;18.70;;;13.67;;
5295;SDS011;2670;42.720;23.336;2022-07-10T01:16:08;18.13;;;12.17;;
5295;SDS011;2670;42.720;23.336;2022-07-10T01:18:35;18.30;;;13.33;;
5295;SDS011;2670;42.720;23.336;2022-07-10T01:21:03;18.90;;;13.93;;
5295;SDS011;2670;42.720;23.336;2022-07-10T01:23:30;18.87;;;13.87;;
5295;SDS011;2670;42.720;23.336;2022-07-10T01:25:56;20.63;;;14.40;;
5295;SDS011;2670;42.720;23.336;2022-07-10T01:28:23;20.23;;;14.20;;
5295;SDS011;2670;42.720;23.336;2022-07-10T01:30:54;21.20;;;13.83;;
5295;SDS011;2670;42.720;23.336;2022-07-10T01:33:22;21.57;;;13.47;;
5295;SDS011;2670;42.720;23.336;2022-07-10T01:35:48;16.93;;;12.77;;
5295;SDS011;2670;42.720;23.336;2022-07-10T01:38:16;16.13;;;12.87;;
5295;SDS011;2670;42.720;23.336;2022-07-10T01:40:43;19.73;;;13.10;;
5295;SDS011;2670;42.720;23.336;2022-07-10T01:43:10;16.47;;;13.97;;
5295;SDS011;2670;42.720;23.336;2022-07-10T01:45:36;18.63;;;12.50;;
5295;SDS011;2670;42.720;23.336;2022-07-10T01:48:03;16.10;;;12.47;;
5295;SDS011;2670;42.720;23.336;2022-07-10T01:50:30;21.60;;;13.10;;
5295;SDS011;2670;42.720;23.336;2022-07-10T01:52:57;15.43;;;12.70;;
5295;SDS011;2670;42.720;23.336;2022-07-10T01:55:25;18.43;;;12.50;;
5295;SDS011;2670;42.720;23.336;2022-07-10T01:57:52;17.47;;;12.03;;
5295;SDS011;2670;42.720;23.336;2022-07-10T02:00:19;18.30;;;12.70;;
5295;SDS011;2670;42.720;23.336;2022-07-10T02:02:45;18.63;;;11.60;;
5295;SDS011;2670;42.720;23.336;2022-07-10T02:05:32;20.53;;;13.40;;
5295;SDS011;2670;42.720;23.336;2022-07-10T02:07:58;15.57;;;12.40;;
5295;SDS011;2670;42.720;23.336;2022-07-10T02:10:26;20.20;;;12.07;;
5295;SDS011;2670;42.720;23.336;2022-07-10T02:12:53;18.93;;;13.37;;
5295;SDS011;2670;42.720;23.336;2022-07-10T02:15:21;16.60;;;12.43;;
5295;SDS011;2670;42.720;23.336;2022-07-10T02:17:48;20.63;;;13.20;;
5295;SDS011;2670;42.720;23.336;2022-07-10T02:20:14;16.90;;;13.10;;
5295;SDS011;2670;42.720;23.336;2022-07-10T02:22:41;18.97;;;14.00;;
5295;SDS011;2670;42.720;23.336;2022-07-10T02:25:08;21.57;;;11.70;;
5295;SDS011;2670;42.720;23.336;2022-07-10T02:27:36;16.53;;;12.27;;
5295;SDS011;2670;42.720;23.336;2022-07-10T02:30:04;15.37;;;12.37;;
5295;SDS011;2670;42.720;23.336;2022-07-10T02:32:32;18.50;;;12.33;;
5295;SDS011;2670;42.720;23.336;2022-07-10T02:34:59;17.03;;;12.73;;
5295;SDS011;2670;42.720;23.336;2022-07-10T02:37:25;18.30;;;13.73;;
5295;SDS011;2670;42.720;23.336;2022-07-10T02:39:52;16.23;;;13.03;;
5295;SDS011;2670;42.720;23.336;2022-07-10T02:42:19;18.23;;;13.17;;
5295;SDS011;2670;42.720;23.336;2022-07-10T02:44:47;19.20;;;13.43;;
5295;SDS011;2670;42.720;23.336;2022-07-10T02:47:13;14.93;;;12.37;;
5295;SDS011;2670;42.720;23.336;2022-07-10T02:49:40;16.40;;;12.43;;
5295;SDS011;2670;42.720;23.336;2022-07-10T02:52:08;19.93;;;12.90;;
5295;SDS011;2670;42.720;23.336;2022-07-10T02:54:35;16.97;;;12.80;;
5295;SDS011;2670;42.720;23.336;2022-07-10T02:57:01;16.97;;;13.30;;
5295;SDS011;2670;42.720;23.336;2022-07-10T02:59:29;15.30;;;12.33;;
5295;SDS011;2670;42.720;23.336;2022-07-10T03:01:57;16.87;;;12.97;;
5295;SDS011;2670;42.720;23.336;2022-07-10T03:04:23;14.87;;;10.87;;
5295;SDS011;2670;42.720;23.336;2022-07-10T03:06:50;17.87;;;12.27;;
5295;SDS011;2670;42.720;23.336;2022-07-10T03:09:17;17.13;;;12.20;;
5295;SDS011;2670;42.720;23.336;2022-07-10T03:11:43;15.80;;;12.57;;
5295;SDS011;2670;42.720;23.336;2022-07-10T03:14:10;22.13;;;13.30;;
5295;SDS011;2670;42.720;23.336;2022-07-10T03:16:37;18.87;;;13.10;;
5295;SDS011;2670;42.720;23.336;2022-07-10T03:19:05;15.20;;;12.53;;
5295;SDS011;2670;42.720;23.336;2022-07-10T03:21:32;26.10;;;13.40;;
5295;SDS011;2670;42.720;23.336;2022-07-10T03:23:58;17.07;;;12.40;;
5295;SDS011;2670;42.720;23.336;2022-07-10T03:26:25;21.17;;;13.03;;
5295;SDS011;2670;42.720;23.336;2022-07-10T03:28:54;20.90;;;12.70;;
5295;SDS011;2670;42.720;23.336;2022-07-10T03:31:21;19.47;;;12.13;;
5295;SDS011;2670;42.720;23.336;2022-07-10T03:33:47;21.53;;;12.70;;
5295;SDS011;2670;42.720;23.336;2022-07-10T03:36:16;17.97;;;12.47;;
5295;SDS011;2670;42.720;23.336;2022-07-10T03:38:42;23.30;;;12.87;;
5295;SDS011;2670;42.720;23.336;2022-07-10T03:41:11;18.10;;;12.63;;
5295;SDS011;2670;42.720;23.336;2022-07-10T03:43:37;17.43;;;11.80;;
5295;SDS011;2670;42.720;23.336;2022-07-10T03:46:04;17.87;;;12.23;;
5295;SDS011;2670;42.720;23.336;2022-07-10T03:48:31;17.23;;;12.70;;
5295;SDS011;2670;42.720;23.336;2022-07-10T03:50:58;15.10;;;12.17;;
5295;SDS011;2670;42.720;23.336;2022-07-10T03:53:26;18.97;;;12.10;;
5295;SDS011;2670;42.720;23.336;2022-07-10T03:55:53;17.33;;;12.97;;
5295;SDS011;2670;42.720;23.336;2022-07-10T03:58:20;14.70;;;11.57;;
5295;SDS011;2670;42.720;23.336;2022-07-10T04:00:46;18.87;;;13.03;;
5295;SDS011;2670;42.720;23.336;2022-07-10T04:03:13;16.80;;;11.73;;
5295;SDS011;2670;42.720;23.336;2022-07-10T04:05:40;16.70;;;12.20;;
5295;SDS011;2670;42.720;23.336;2022-07-10T04:08:06;14.80;;;11.67;;
5295;SDS011;2670;42.720;23.336;2022-07-10T04:10:35;21.37;;;13.43;;
5295;SDS011;2670;42.720;23.336;2022-07-10T04:13:02;14.17;;;11.57;;
5295;SDS011;2670;42.720;23.336;2022-07-10T04:15:28;13.90;;;11.20;;
5295;SDS011;2670;42.720;23.336;2022-07-10T04:17:55;13.90;;;11.10;;
5295;SDS011;2670;42.720;23.336;2022-07-10T04:20:22;17.63;;;12.07;;
5295;SDS011;2670;42.720;23.336;2022-07-10T04:22:50;20.73;;;11.67;;
5295;SDS011;2670;42.720;23.336;2022-07-10T04:25:17;18.60;;;12.13;;
5295;SDS011;2670;42.720;23.336;2022-07-10T04:27:45;14.27;;;12.20;;
5295;SDS011;2670;42.720;23.336;2022-07-10T04:30:11;14.00;;;10.73;;
5295;SDS011;2670;42.720;23.336;2022-07-10T04:32:38;17.20;;;11.67;;
5295;SDS011;2670;42.720;23.336;2022-07-10T04:35:05;19.63;;;11.50;;
5295;SDS011;2670;42.720;23.336;2022-07-10T04:37:32;16.43;;;11.87;;
5295;SDS011;2670;42.720;23.336;2022-07-10T04:40:00;13.70;;;10.60;;
5295;SDS011;2670;42.720;23.336;2022-07-10T04:42:27;17.00;;;11.47;;
5295;SDS011;2670;42.720;23.336;2022-07-10T04:44:55;13.00;;;11.00;;
5295;SDS011;2670;42.720;23.336;2022-07-10T04:47:22;14.17;;;11.80;;
5295;SDS011;2670;42.720;23.336;2022-07-10T04:49:49;19.10;;;10.97;;
5295;SDS011;2670;42.720;23.336;2022-07-10T04:52:15;12.07;;;10.37;;
5295;SDS011;2670;42.720;23.336;2022-07-10T04:54:42;12.87;;;10.60;;
5295;SDS011;2670;42.720;23.336;2022-07-10T04:57:09;15.80;;;11.60;;
5295;SDS011;2670;42.720;23.336;2022-07-10T04:59:36;17.80;;;11.10;;
5295;SDS011;2670;42.720;23.336;2022-07-10T05:02:04;23.83;;;10.07;;
5295;SDS011;2670;42.720;23.336;2022-07-10T05:04:32;17.57;;;11.03;;
5295;SDS011;2670;42.720;23.336;2022-07-10T05:06:59;16.17;;;10.43;;
5295;SDS011;2670;42.720;23.336;2022-07-10T05:09:25;15.60;;;10.53;;
5295;SDS011;2670;42.720;23.336;2022-07-10T05:11:52;13.13;;;10.17;;
5295;SDS011;2670;42.720;23.336;2022-07-10T05:14:19;13.13;;;10.50;;
5295;SDS011;2670;42.720;23.336;2022-07-10T05:16:46;14.27;;;9.90;;
5295;SDS011;2670;42.720;23.336;2022-07-10T05:19:14;13.63;;;10.93;;
5295;SDS011;2670;42.720;23.336;2022-07-10T05:21:41;12.67;;;9.70;;
5295;SDS011;2670;42.720;23.336;2022-07-10T05:24:08;12.43;;;10.70;;
5295;SDS011;2670;42.720;23.336;2022-07-10T05:26:34;13.80;;;9.90;;
5295;SDS011;2670;42.720;23.336;2022-07-10T05:29:02;15.10;;;10.30;;
5295;SDS011;2670;42.720;23.336;2022-07-10T05:31:28;11.70;;;9.53;;
5295;SDS011;2670;42.720;23.336;2022-07-10T05:33:55;11.40;;;9.57;;
5295;SDS011;2670;42.720;23.336;2022-07-10T05:36:23;13.30;;;9.70;;
5295;SDS011;2670;42.720;23.336;2022-07-10T05:38:50;12.97;;;8.90;;
5295;SDS011;2670;42.720;23.336;2022-07-10T05:41:17;15.10;;;9.63;;
5295;SDS011;2670;42.720;23.336;2022-07-10T05:43:44;11.27;;;9.20;;
5295;SDS011;2670;42.720;23.336;2022-07-10T05:46:10;9.97;;;8.33;;
5295;SDS011;2670;42.720;23.336;2022-07-10T05:48:37;16.00;;;8.50;;
5295;SDS011;2670;42.720;23.336;2022-07-10T05:51:04;15.90;;;9.10;;
5295;SDS011;2670;42.720;23.336;2022-07-10T05:53:32;10.50;;;7.80;;
5295;SDS011;2670;42.720;23.336;2022-07-10T05:55:59;12.90;;;9.30;;
5295;SDS011;2670;42.720;23.336;2022-07-10T05:58:27;13.33;;;8.90;;
5295;SDS011;2670;42.720;23.336;2022-07-10T06:00:54;11.00;;;7.73;;
5295;SDS011;2670;42.720;23.336;2022-07-10T06:03:21;13.80;;;9.30;;
5295;SDS011;2670;42.720;23.336;2022-07-10T06:05:47;14.17;;;8.10;;
5295;SDS011;2670;42.720;23.336;2022-07-10T06:08:14;12.33;;;8.07;;
5295;SDS011;2670;42.720;23.336;2022-07-10T06:10:42;11.07;;;8.60;;
5295;SDS011;2670;42.720;23.336;2022-07-10T06:13:10;11.43;;;8.40;;
5295;SDS011;2670;42.720;23.336;2022-07-10T06:15:37;9.37;;;8.20;;
5295;SDS011;2670;42.720;23.336;2022-07-10T06:18:04;11.77;;;7.93;;
5295;SDS011;2670;42.720;23.336;2022-07-10T06:20:31;8.40;;;7.50;;
5295;SDS011;2670;42.720;23.336;2022-07-10T06:22:57;10.80;;;7.83;;
5295;SDS011;2670;42.720;23.336;2022-07-10T06:25:24;9.63;;;7.47;;
5295;SDS011;2670;42.720;23.336;2022-07-10T06:27:52;9.70;;;7.30;;
5295;SDS011;2670;42.720;23.336;2022-07-10T06:30:19;10.73;;;7.67;;
5295;SDS011;2670;42.720;23.336;2022-07-10T06:32:46;12.43;;;8.00;;
5295;SDS011;2670;42.720;23.336;2022-07-10T06:35:13;9.30;;;7.93;;
5295;SDS011;2670;42.720;23.336;2022-07-10T06:37:39;10.00;;;6.63;;
5295;SDS011;2670;42.720;23.336;2022-07-10T06:40:07;11.53;;;7.67;;
5295;SDS011;2670;42.720;23.336;2022-07-10T06:42:36;10.00;;;7.03;;
5295;SDS011;2670;42.720;23.336;2022-07-10T06:45:04;10.60;;;7.30;;
5295;SDS011;2670;42.720;23.336;2022-07-10T06:47:32;10.33;;;7.07;;
5295;SDS011;2670;42.720;23.336;2022-07-10T06:50:16;9.97;;;7.90;;
5295;SDS011;2670;42.720;23.336;2022-07-10T06:52:43;9.60;;;6.30;;
5295;SDS011;2670;42.720;23.336;2022-07-10T06:55:10;10.97;;;6.80;;
5295;SDS011;2670;42.720;23.336;2022-07-10T06:57:37;11.13;;;6.97;;
5295;SDS011;2670;42.720;23.336;2022-07-10T07:00:07;10.97;;;6.40;;
5295;SDS011;2670;42.720;23.336;2022-07-10T07:02:36;7.83;;;6.37;;
5295;SDS011;2670;42.720;23.336;2022-07-10T07:05:03;8.80;;;6.77;;
5295;SDS011;2670;42.720;23.336;2022-07-10T07:07:30;10.33;;;6.60;;
5295;SDS011;2670;42.720;23.336;2022-07-10T07:09:57;9.27;;;6.60;;
5295;SDS011;2670;42.720;23.336;2022-07-10T07:12:24;10.07;;;6.57;;
5295;SDS011;2670;42.720;23.336;2022-07-10T07:14:51;11.20;;;7.00;;
5295;SDS011;2670;42.720;23.336;2022-07-10T07:17:19;9.23;;;6.87;;
5295;SDS011;2670;42.720;23.336;2022-07-10T07:19:49;11.03;;;6.50;;
5295;SDS011;2670;42.720;23.336;2022-07-10T07:22:33;9.60;;;6.77;;
5295;SDS011;2670;42.720;23.336;2022-07-10T07:25:17;17.73;;;7.53;;
5295;SDS011;2670;42.720;23.336;2022-07-10T07:27:44;11.10;;;7.63;;
5295;SDS011;2670;42.720;23.336;2022-07-10T07:30:13;7.97;;;7.17;;
5295;SDS011;2670;42.720;23.336;2022-07-10T07:32:42;9.07;;;6.40;;
5295;SDS011;2670;42.720;23.336;2022-07-10T07:35:10;13.67;;;6.50;;
5295;SDS011;2670;42.720;23.336;2022-07-10T07:37:38;8.73;;;6.90;;
5295;SDS011;2670;42.720;23.336;2022-07-10T07:40:06;13.03;;;6.30;;
5295;SDS011;2670;42.720;23.336;2022-07-10T07:42:35;9.70;;;6.53;;
5295;SDS011;2670;42.720;23.336;2022-07-10T07:45:02;8.27;;;6.17;;
5295;SDS011;2670;42.720;23.336;2022-07-10T07:47:30;8.37;;;5.80;;
5295;SDS011;2670;42.720;23.336;2022-07-10T07:50:01;7.80;;;5.37;;
5295;SDS011;2670;42.720;23.336;2022-07-10T07:52:28;8.77;;;5.70;;
5295;SDS011;2670;42.720;23.336;2022-07-10T07:54:56;7.10;;;4.90;;
5295;SDS011;2670;42.720;23.336;2022-07-10T07:57:23;6.40;;;5.17;;
5295;SDS011;2670;42.720;23.336;2022-07-10T07:59:49;7.10;;;5.93;;
5295;SDS011;2670;42.720;23.336;2022-07-10T08:02:16;10.57;;;5.60;;
5295;SDS011;2670;42.720;23.336;2022-07-10T08:04:43;10.10;;;4.90;;
5295;SDS011;2670;42.720;23.336;2022-07-10T08:07:11;11.60;;;5.30;;
5295;SDS011;2670;42.720;23.336;2022-07-10T08:09:37;7.60;;;4.47;;
5295;SDS011;2670;42.720;23.336;2022-07-10T08:12:05;14.30;;;4.87;;
5295;SDS011;2670;42.720;23.336;2022-07-10T08:14:32;6.77;;;4.67;;
5295;SDS011;2670;42.720;23.336;2022-07-10T08:16:58;4.40;;;4.00;;
5295;SDS011;2670;42.720;23.336;2022-07-10T08:19:25;6.90;;;5.30;;
5295;SDS011;2670;42.720;23.336;2022-07-10T08:21:52;7.50;;;5.10;;
5295;SDS011;2670;42.720;23.336;2022-07-10T08:24:20;6.00;;;4.40;;
5295;SDS011;2670;42.720;23.336;2022-07-10T08:26:47;4.67;;;4.17;;
5295;SDS011;2670;42.720;23.336;2022-07-10T08:29:14;5.63;;;4.40;;
5295;SDS011;2670;42.720;23.336;2022-07-10T08:31:41;7.13;;;4.73;;
5295;SDS011;2670;42.720;23.336;2022-07-10T08:34:07;6.67;;;4.60;;
5295;SDS011;2670;42.720;23.336;2022-07-10T08:36:34;4.87;;;3.93;;
5295;SDS011;2670;42.720;23.336;2022-07-10T08:39:01;5.93;;;4.90;;
5295;SDS011;2670;42.720;23.336;2022-07-10T08:41:29;6.23;;;4.47;;
5295;SDS011;2670;42.720;23.336;2022-07-10T08:43:57;10.93;;;4.20;;
5295;SDS011;2670;42.720;23.336;2022-07-10T08:46:25;5.40;;;4.40;;
5295;SDS011;2670;42.720;23.336;2022-07-10T08:48:53;8.23;;;4.40;;
5295;SDS011;2670;42.720;23.336;2022-07-10T08:51:35;8.23;;;5.57;;
5295;SDS011;2670;42.720;23.336;2022-07-10T08:54:03;9.33;;;5.47;;
5295;SDS011;2670;42.720;23.336;2022-07-10T08:56:33;8.73;;;5.33;;
5295;SDS011;2670;42.720;23.336;2022-07-10T08:59:02;5.00;;;3.83;;
5295;SDS011;2670;42.720;23.336;2022-07-10T09:01:30;5.73;;;4.70;;
5295;SDS011;2670;42.720;23.336;2022-07-10T09:03:57;6.93;;;4.17;;
5295;SDS011;2670;42.720;23.336;2022-07-10T09:06:24;4.40;;;4.00;;
5295;SDS011;2670;42.720;23.336;2022-07-10T09:08:57;4.50;;;3.83;;
5295;SDS011;2670;42.720;23.336;2022-07-10T09:11:26;7.90;;;4.30;;
5295;SDS011;2670;42.720;23.336;2022-07-10T09:13:56;5.33;;;4.07;;
5295;SDS011;2670;42.720;23.336;2022-07-10T09:16:25;5.23;;;4.53;;
5295;SDS011;2670;42.720;23.336;2022-07-10T09:18:52;5.53;;;5.00;;
5295;SDS011;2670;42.720;23.336;2022-07-10T09:21:20;7.03;;;4.43;;
5295;SDS011;2670;42.720;23.336;2022-07-10T09:23:47;4.70;;;3.53;;
5295;SDS011;2670;42.720;23.336;2022-07-10T09:26:14;6.50;;;4.30;;
5295;SDS011;2670;42.720;23.336;2022-07-10T09:28:41;6.63;;;4.20;;
5295;SDS011;2670;42.720;23.336;2022-07-10T09:31:09;6.07;;;4.00;;
5295;SDS011;2670;42.720;23.336;2022-07-10T09:33:36;4.60;;;3.83;;
5295;SDS011;2670;42.720;23.336;2022-07-10T09:36:03;6.90;;;4.80;;
5295;SDS011;2670;42.720;23.336;2022-07-10T09:41:17;5.33;;;4.00;;
5295;SDS011;2670;42.720;23.336;2022-07-10T09:43:46;5.20;;;3.80;;
5295;SDS011;2670;42.720;23.336;2022-07-10T09:46:15;5.00;;;4.13;;
5295;SDS011;2670;42.720;23.336;2022-07-10T09:48:43;4.90;;;3.80;;
5295;SDS011;2670;42.720;23.336;2022-07-10T09:51:11;5.90;;;3.60;;
5295;SDS011;2670;42.720;23.336;2022-07-10T09:53:38;7.97;;;4.13;;
5295;SDS011;2670;42.720;23.336;2022-07-10T09:56:07;7.07;;;3.80;;
5295;SDS011;2670;42.720;23.336;2022-07-10T09:58:34;8.50;;;3.60;;
5295;SDS011;2670;42.720;23.336;2022-07-10T10:01:02;4.67;;;3.50;;
5295;SDS011;2670;42.720;23.336;2022-07-10T10:03:33;10.37;;;3.90;;
5295;SDS011;2670;42.720;23.336;2022-07-10T10:06:02;5.13;;;3.80;;
5295;SDS011;2670;42.720;23.336;2022-07-10T10:08:31;8.17;;;4.23;;
5295;SDS011;2670;42.720;23.336;2022-07-10T10:11:04;3.50;;;3.20;;
5295;SDS011;2670;42.720;23.336;2022-07-10T10:13:33;6.93;;;3.33;;
5295;SDS011;2670;42.720;23.336;2022-07-10T10:16:00;6.13;;;3.83;;
5295;SDS011;2670;42.720;23.336;2022-07-10T10:18:28;4.23;;;3.83;;
5295;SDS011;2670;42.720;23.336;2022-07-10T10:20:57;5.70;;;3.23;;
5295;SDS011;2670;42.720;23.336;2022-07-10T10:23:23;4.37;;;2.90;;
5295;SDS011;2670;42.720;23.336;2022-07-10T10:25:53;13.10;;;3.90;;
5295;SDS011;2670;42.720;23.336;2022-07-10T10:28:22;8.57;;;3.00;;
5295;SDS011;2670;42.720;23.336;2022-07-10T10:30:50;7.73;;;3.27;;
5295;SDS011;2670;42.720;23.336;2022-07-10T10:39:12;4.63;;;3.03;;
5295;SDS011;2670;42.720;23.336;2022-07-10T10:41:42;10.63;;;3.30;;
5295;SDS011;2670;42.720;23.336;2022-07-10T10:47:03;4.07;;;3.10;;
5295;SDS011;2670;42.720;23.336;2022-07-10T10:49:54;3.50;;;2.80;;
5295;SDS011;2670;42.720;23.336;2022-07-10T10:52:28;8.30;;;3.50;;
5295;SDS011;2670;42.720;23.336;2022-07-10T10:55:07;6.90;;;3.27;;
5295;SDS011;2670;42.720;23.336;2022-07-10T10:57:39;5.80;;;2.80;;
5295;SDS011;2670;42.720;23.336;2022-07-10T11:00:12;3.90;;;2.80;;
5295;SDS011;2670;42.720;23.336;2022-07-10T11:03:10;8.00;;;3.40;;
5295;SDS011;2670;42.720;23.336;2022-07-10T11:05:42;3.80;;;2.93;;
5295;SDS011;2670;42.720;23.336;2022-07-10T11:08:12;6.70;;;3.63;;
5295;SDS011;2670;42.720;23.336;2022-07-10T11:10:40;5.30;;;3.37;;
5295;SDS011;2670;42.720;23.336;2022-07-10T11:13:08;4.40;;;3.20;;
5295;SDS011;2670;42.720;23.336;2022-07-10T11:15:36;4.03;;;3.30;;
5295;SDS011;2670;42.720;23.336;2022-07-10T11:18:04;6.43;;;3.70;;
5295;SDS011;2670;42.720;23.336;2022-07-10T11:20:33;3.75;;;2.90;;
5295;SDS011;2670;42.720;23.336;2022-07-10T11:23:19;3.60;;;3.00;;
5295;SDS011;2670;42.720;23.336;2022-07-10T11:26:02;4.03;;;3.30;;
5295;SDS011;2670;42.720;23.336;2022-07-10T11:28:47;4.77;;;2.80;;
5295;SDS011;2670;42.720;23.336;2022-07-10T11:31:17;3.20;;;2.90;;
5295;SDS011;2670;42.720;23.336;2022-07-10T11:33:44;3.50;;;3.17;;
5295;SDS011;2670;42.720;23.336;2022-07-10T11:36:13;3.20;;;2.90;;
5295;SDS011;2670;42.720;23.336;2022-07-10T11:38:44;3.93;;;2.90;;
5295;SDS011;2670;42.720;23.336;2022-07-10T11:41:12;5.90;;;2.97;;
5295;SDS011;2670;42.720;23.336;2022-07-10T11:43:45;3.33;;;2.93;;
5295;SDS011;2670;42.720;23.336;2022-07-10T11:46:13;3.37;;;3.07;;
5295;SDS011;2670;42.720;23.336;2022-07-10T11:48:39;3.50;;;3.07;;
5295;SDS011;2670;42.720;23.336;2022-07-10T11:51:15;5.90;;;3.33;;
5295;SDS011;2670;42.720;23.336;2022-07-10T11:53:53;4.60;;;3.30;;
5295;SDS011;2670;42.720;23.336;2022-07-10T11:56:21;3.50;;;3.03;;
5295;SDS011;2670;42.720;23.336;2022-07-10T11:58:57;4.20;;;3.03;;
5295;SDS011;2670;42.720;23.336;2022-07-10T12:01:25;5.00;;;2.90;;
5295;SDS011;2670;42.720;23.336;2022-07-10T12:03:57;3.87;;;3.33;;
5295;SDS011;2670;42.720;23.336;2022-07-10T12:06:25;3.33;;;2.60;;
5295;SDS011;2670;42.720;23.336;2022-07-10T12:08:54;3.13;;;2.83;;
5295;SDS011;2670;42.720;23.336;2022-07-10T12:11:22;6.33;;;3.20;;
5295;SDS011;2670;42.720;23.336;2022-07-10T12:13:50;3.33;;;2.80;;
5295;SDS011;2670;42.720;23.336;2022-07-10T12:16:18;5.20;;;4.30;;
5295;SDS011;2670;42.720;23.336;2022-07-10T12:18:46;4.63;;;3.10;;
5295;SDS011;2670;42.720;23.336;2022-07-10T12:21:14;2.40;;;2.20;;
5295;SDS011;2670;42.720;23.336;2022-07-10T12:23:42;3.50;;;2.47;;
5295;SDS011;2670;42.720;23.336;2022-07-10T12:26:12;5.53;;;2.50;;
5295;SDS011;2670;42.720;23.336;2022-07-10T12:28:47;3.17;;;2.87;;
5295;SDS011;2670;42.720;23.336;2022-07-10T12:31:19;3.50;;;2.60;;
5295;SDS011;2670;42.720;23.336;2022-07-10T12:33:49;3.33;;;2.63;;
5295;SDS011;2670;42.720;23.336;2022-07-10T12:36:17;5.50;;;2.60;;
5295;SDS011;2670;42.720;23.336;2022-07-10T12:38:52;5.13;;;2.70;;
5295;SDS011;2670;42.720;23.336;2022-07-10T12:41:21;5.03;;;2.20;;
5295;SDS011;2670;42.720;23.336;2022-07-10T12:43:50;5.43;;;2.97;;
5295;SDS011;2670;42.720;23.336;2022-07-10T12:46:17;7.57;;;2.73;;
5295;SDS011;2670;42.720;23.336;2022-07-10T12:49:00;5.50;;;2.60;;
5295;SDS011;2670;42.720;23.336;2022-07-10T12:51:28;2.50;;;2.27;;
5295;SDS011;2670;42.720;23.336;2022-07-10T12:53:56;2.60;;;2.23;;
5295;SDS011;2670;42.720;23.336;2022-07-10T12:56:31;13.37;;;2.47;;
5295;SDS011;2670;42.720;23.336;2022-07-10T12:58:59;3.90;;;2.27;;
5295;SDS011;2670;42.720;23.336;2022-07-10T13:01:27;4.30;;;2.57;;
5295;SDS011;2670;42.720;23.336;2022-07-10T13:03:57;3.13;;;2.07;;
5295;SDS011;2670;42.720;23.336;2022-07-10T13:06:25;2.87;;;2.37;;
5295;SDS011;2670;42.720;23.336;2022-07-10T13:08:53;2.70;;;2.13;;
5295;SDS011;2670;42.720;23.336;2022-07-10T13:11:20;3.43;;;2.37;;
5295;SDS011;2670;42.720;23.336;2022-07-10T13:13:49;2.50;;;1.77;;
5295;SDS011;2670;42.720;23.336;2022-07-10T13:16:16;2.53;;;2.00;;
5295;SDS011;2670;42.720;23.336;2022-07-10T13:18:43;4.53;;;1.80;;
5295;SDS011;2670;42.720;23.336;2022-07-10T13:21:10;2.03;;;1.73;;
5295;SDS011;2670;42.720;23.336;2022-07-10T13:23:37;2.60;;;1.77;;
5295;SDS011;2670;42.720;23.336;2022-07-10T13:26:04;1.50;;;1.40;;
5295;SDS011;2670;42.720;23.336;2022-07-10T13:28:32;1.73;;;1.40;;
5295;SDS011;2670;42.720;23.336;2022-07-10T13:31:00;2.07;;;1.53;;
5295;SDS011;2670;42.720;23.336;2022-07-10T13:33:27;12.37;;;2.00;;
5295;SDS011;2670;42.720;23.336;2022-07-10T13:35:54;5.10;;;1.67;;
5295;SDS011;2670;42.720;23.336;2022-07-10T13:38:20;3.77;;;1.80;;
5295;SDS011;2670;42.720;23.336;2022-07-10T13:40:50;2.10;;;1.60;;
5295;SDS011;2670;42.720;23.336;2022-07-10T13:43:17;4.90;;;1.67;;
5295;SDS011;2670;42.720;23.336;2022-07-10T13:45:46;6.87;;;1.70;;
5295;SDS011;2670;42.720;23.336;2022-07-10T13:48:14;2.33;;;1.60;;
5295;SDS011;2670;42.720;23.336;2022-07-10T13:50:42;2.17;;;1.50;;
5295;SDS011;2670;42.720;23.336;2022-07-10T13:53:12;2.43;;;1.90;;
5295;SDS011;2670;42.720;23.336;2022-07-10T13:55:39;3.00;;;1.63;;
5295;SDS011;2670;42.720;23.336;2022-07-10T13:58:06;2.00;;;1.60;;
5295;SDS011;2670;42.720;23.336;2022-07-10T14:00:34;2.40;;;1.80;;
5295;SDS011;2670;42.720;23.336;2022-07-10T14:03:00;3.67;;;1.90;;
5295;SDS011;2670;42.720;23.336;2022-07-10T14:05:29;2.33;;;1.70;;
5295;SDS011;2670;42.720;23.336;2022-07-10T14:07:57;1.70;;;1.50;;
5295;SDS011;2670;42.720;23.336;2022-07-10T14:10:24;2.60;;;2.20;;
5295;SDS011;2670;42.720;23.336;2022-07-10T14:12:51;3.53;;;1.53;;
5295;SDS011;2670;42.720;23.336;2022-07-10T14:15:19;2.10;;;1.70;;
5295;SDS011;2670;42.720;23.336;2022-07-10T14:17:46;2.10;;;1.50;;
5295;SDS011;2670;42.720;23.336;2022-07-10T14:20:13;4.37;;;1.63;;
5295;SDS011;2670;42.720;23.336;2022-07-10T14:22:43;1.60;;;1.50;;
5295;SDS011;2670;42.720;23.336;2022-07-10T14:25:11;1.60;;;1.50;;
5295;SDS011;2670;42.720;23.336;2022-07-10T14:27:38;1.90;;;1.70;;
5295;SDS011;2670;42.720;23.336;2022-07-10T14:30:05;6.50;;;1.87;;
5295;SDS011;2670;42.720;23.336;2022-07-10T14:32:33;3.97;;;1.87;;
5295;SDS011;2670;42.720;23.336;2022-07-10T14:35:00;1.60;;;1.40;;
5295;SDS011;2670;42.720;23.336;2022-07-10T14:37:26;7.50;;;2.50;;
5295;SDS011;2670;42.720;23.336;2022-07-10T14:39:55;2.40;;;2.00;;
5295;SDS011;2670;42.720;23.336;2022-07-10T14:42:21;3.00;;;2.13;;
5295;SDS011;2670;42.720;23.336;2022-07-10T14:44:48;5.37;;;2.17;;
5295;SDS011;2670;42.720;23.336;2022-07-10T14:47:16;4.60;;;2.37;;
5295;SDS011;2670;42.720;23.336;2022-07-10T14:49:42;2.47;;;1.97;;
5295;SDS011;2670;42.720;23.336;2022-07-10T14:52:09;2.20;;;1.83;;
5295;SDS011;2670;42.720;23.336;2022-07-10T14:54:36;4.33;;;1.97;;
5295;SDS011;2670;42.720;23.336;2022-07-10T14:57:04;2.47;;;1.87;;
5295;SDS011;2670;42.720;23.336;2022-07-10T14:59:31;4.20;;;2.30;;
5295;SDS011;2670;42.720;23.336;2022-07-10T15:01:58;4.23;;;3.20;;
5295;SDS011;2670;42.720;23.336;2022-07-10T15:04:24;8.60;;;1.90;;
5295;SDS011;2670;42.720;23.336;2022-07-10T15:06:51;1.83;;;1.63;;
5295;SDS011;2670;42.720;23.336;2022-07-10T15:09:18;3.07;;;1.97;;